Terminal Aerodrome Forecast
Issued by NWS Portland, OR

Home | Current Version | Previous Version | Text Only | Print | Product List | Glossary On
Versions: 1 2 3 4 5 6 7 8 9 10 11 12 13 14 15 16 17 18 19 20 21 22 23 24 25
000
FTUS46 KPQR 011120
TAFTTD
TAF
KTTD 011120Z 0112/0212 VRB03KT 1SM BR OVC007
     FM011900 VRB03KT 3SM BR BKN010
     FM012200 32003KT P6SM VCSH FEW015 BKN030
     FM020900 VRB03KT 6SM BR FEW004 SCT030 BKN040=

USA.gov is the U.S. government's official web portal to all federal, state and local government web resources and services.